Polgar, Hungary
Current Conditions -  °F | °C
As of 9:45 AM on Tuesday 27 Jan 2015 (Local Time) from LHDC Reporting Station
Light Snow Light Snow  
Wind Chill: 32°   Ceiling: 3000
Heat Index: 32°   Visibility: 1.2mi
Dew Point: 32°   Wind: 2mph
Humidity: 100%   Direction: 190°S
Pressure: 30.03"   Gusts: NA
Location:  47.87°N, 21.12°E
Report Text: LHDC 270745Z 19002KT 2000 -SN OVC030 00/M00 Q1017
Loading
Personal Weather Stations






























Interactive Weather Map New forecast layout! Learn more

10-Day Weather Forecast

Advertisements
Track Severe Weather on mobile